sensor_id;sensor_type;location;lat;lon;timestamp;temperature;humidity
285;DHT22;127;48.770;9.212;2023-04-24T00:02:33;10.60;99.90
285;DHT22;127;48.770;9.212;2023-04-24T00:05:05;10.70;99.90
285;DHT22;127;48.770;9.212;2023-04-24T00:07:35;10.70;99.90
285;DHT22;127;48.770;9.212;2023-04-24T00:10:09;10.80;99.90
285;DHT22;127;48.770;9.212;2023-04-24T00:12:41;10.80;99.90
285;DHT22;127;48.770;9.212;2023-04-24T00:15:10;10.80;99.90
285;DHT22;127;48.770;9.212;2023-04-24T00:17:42;10.80;99.90
285;DHT22;127;48.770;9.212;2023-04-24T00:20:11;10.80;99.90
285;DHT22;127;48.770;9.212;2023-04-24T00:22:49;10.80;99.90
285;DHT22;127;48.770;9.212;2023-04-24T00:25:18;10.80;99.90
285;DHT22;127;48.770;9.212;2023-04-24T00:27:50;10.80;99.90
285;DHT22;127;48.770;9.212;2023-04-24T00:30:19;10.80;99.90
285;DHT22;127;48.770;9.212;2023-04-24T00:32:53;10.90;99.90
285;DHT22;127;48.770;9.212;2023-04-24T00:35:51;10.90;99.90
285;DHT22;127;48.770;9.212;2023-04-24T00:38:22;11.00;99.90
285;DHT22;127;48.770;9.212;2023-04-24T00:40:51;11.00;99.90
285;DHT22;127;48.770;9.212;2023-04-24T00:43:20;11.10;99.90
285;DHT22;127;48.770;9.212;2023-04-24T00:45:54;11.00;99.90
285;DHT22;127;48.770;9.212;2023-04-24T00:48:29;11.00;99.90
285;DHT22;127;48.770;9.212;2023-04-24T00:50:59;11.00;99.90
285;DHT22;127;48.770;9.212;2023-04-24T00:53:32;11.10;99.90
285;DHT22;127;48.770;9.212;2023-04-24T00:56:03;11.10;99.90
285;DHT22;127;48.770;9.212;2023-04-24T00:58:32;11.10;99.90
285;DHT22;127;48.770;9.212;2023-04-24T01:01:06;11.10;99.90
285;DHT22;127;48.770;9.212;2023-04-24T01:03:38;11.10;99.90
285;DHT22;127;48.770;9.212;2023-04-24T01:06:09;11.10;99.90
285;DHT22;127;48.770;9.212;2023-04-24T01:08:39;11.10;99.90
285;DHT22;127;48.770;9.212;2023-04-24T01:11:14;11.10;99.90
285;DHT22;127;48.770;9.212;2023-04-24T01:13:43;11.10;99.90
285;DHT22;127;48.770;9.212;2023-04-24T01:16:22;11.10;99.90
285;DHT22;127;48.770;9.212;2023-04-24T01:18:59;11.10;99.90
285;DHT22;127;48.770;9.212;2023-04-24T01:21:37;11.10;99.90
285;DHT22;127;48.770;9.212;2023-04-24T01:27:39;11.10;99.90
285;DHT22;127;48.770;9.212;2023-04-24T01:30:16;11.00;99.90
285;DHT22;127;48.770;9.212;2023-04-24T01:32:51;11.00;99.90
285;DHT22;127;48.770;9.212;2023-04-24T01:35:25;10.90;99.90
285;DHT22;127;48.770;9.212;2023-04-24T01:37:54;10.80;99.90
285;DHT22;127;48.770;9.212;2023-04-24T01:40:23;10.80;99.90
285;DHT22;127;48.770;9.212;2023-04-24T01:43:03;10.60;99.90
285;DHT22;127;48.770;9.212;2023-04-24T01:45:32;10.50;99.90
285;DHT22;127;48.770;9.212;2023-04-24T01:48:01;10.50;99.90
285;DHT22;127;48.770;9.212;2023-04-24T01:50:30;10.50;99.90
285;DHT22;127;48.770;9.212;2023-04-24T01:53:14;10.50;99.90
285;DHT22;127;48.770;9.212;2023-04-24T01:55:45;10.60;99.90
285;DHT22;127;48.770;9.212;2023-04-24T01:58:16;10.70;99.90
285;DHT22;127;48.770;9.212;2023-04-24T02:00:46;10.60;99.90
285;DHT22;127;48.770;9.212;2023-04-24T02:03:16;10.60;99.90
285;DHT22;127;48.770;9.212;2023-04-24T02:05:47;10.60;99.90
285;DHT22;127;48.770;9.212;2023-04-24T02:08:22;10.60;99.90
285;DHT22;127;48.770;9.212;2023-04-24T02:10:56;10.60;99.90
285;DHT22;127;48.770;9.212;2023-04-24T02:13:32;10.60;99.90
285;DHT22;127;48.770;9.212;2023-04-24T02:16:03;10.60;99.90
285;DHT22;127;48.770;9.212;2023-04-24T02:18:32;10.60;99.90
285;DHT22;127;48.770;9.212;2023-04-24T02:21:01;10.60;99.90
285;DHT22;127;48.770;9.212;2023-04-24T02:23:30;10.60;99.90
285;DHT22;127;48.770;9.212;2023-04-24T02:26:09;10.60;99.90
285;DHT22;127;48.770;9.212;2023-04-24T02:28:41;10.50;99.90
285;DHT22;127;48.770;9.212;2023-04-24T02:31:24;10.50;99.90
285;DHT22;127;48.770;9.212;2023-04-24T02:33:55;10.40;99.90
285;DHT22;127;48.770;9.212;2023-04-24T02:36:25;10.30;99.90
285;DHT22;127;48.770;9.212;2023-04-24T02:38:53;10.40;99.90
285;DHT22;127;48.770;9.212;2023-04-24T02:41:28;10.40;99.90
285;DHT22;127;48.770;9.212;2023-04-24T02:44:01;10.50;99.90
285;DHT22;127;48.770;9.212;2023-04-24T02:46:34;10.50;99.90
285;DHT22;127;48.770;9.212;2023-04-24T02:49:07;10.50;99.90
285;DHT22;127;48.770;9.212;2023-04-24T02:51:37;10.60;99.90
285;DHT22;127;48.770;9.212;2023-04-24T02:54:11;10.30;99.90
285;DHT22;127;48.770;9.212;2023-04-24T02:56:39;10.20;99.90
285;DHT22;127;48.770;9.212;2023-04-24T02:59:20;10.20;99.90
285;DHT22;127;48.770;9.212;2023-04-24T03:01:50;10.10;99.90
285;DHT22;127;48.770;9.212;2023-04-24T03:04:21;10.00;99.90
285;DHT22;127;48.770;9.212;2023-04-24T03:06:50;10.00;99.90
285;DHT22;127;48.770;9.212;2023-04-24T03:09:23;10.00;99.90
285;DHT22;127;48.770;9.212;2023-04-24T03:11:59;9.90;99.90
285;DHT22;127;48.770;9.212;2023-04-24T03:14:32;9.90;99.90
285;DHT22;127;48.770;9.212;2023-04-24T03:17:05;9.90;99.90
285;DHT22;127;48.770;9.212;2023-04-24T03:19:51;9.80;99.90
285;DHT22;127;48.770;9.212;2023-04-24T03:22:26;9.80;99.90
285;DHT22;127;48.770;9.212;2023-04-24T03:24:59;9.70;99.90
285;DHT22;127;48.770;9.212;2023-04-24T03:27:34;9.70;99.90
285;DHT22;127;48.770;9.212;2023-04-24T03:30:10;9.70;99.90
285;DHT22;127;48.770;9.212;2023-04-24T03:32:41;9.70;99.90
285;DHT22;127;48.770;9.212;2023-04-24T03:35:18;9.70;99.90
285;DHT22;127;48.770;9.212;2023-04-24T03:37:47;9.80;99.90
285;DHT22;127;48.770;9.212;2023-04-24T03:40:19;9.80;99.90
285;DHT22;127;48.770;9.212;2023-04-24T03:42:50;9.70;99.90
285;DHT22;127;48.770;9.212;2023-04-24T03:45:24;9.70;99.90
285;DHT22;127;48.770;9.212;2023-04-24T03:47:53;9.70;99.90
285;DHT22;127;48.770;9.212;2023-04-24T03:50:24;9.70;99.90
285;DHT22;127;48.770;9.212;2023-04-24T03:52:56;9.80;99.90
285;DHT22;127;48.770;9.212;2023-04-24T03:55:30;9.70;99.90
285;DHT22;127;48.770;9.212;2023-04-24T03:58:06;9.70;99.90
285;DHT22;127;48.770;9.212;2023-04-24T04:00:49;9.60;99.90
285;DHT22;127;48.770;9.212;2023-04-24T04:03:26;9.60;99.90
285;DHT22;127;48.770;9.212;2023-04-24T04:05:55;9.50;99.90
285;DHT22;127;48.770;9.212;2023-04-24T04:08:24;9.50;99.90
285;DHT22;127;48.770;9.212;2023-04-24T04:10:55;9.50;99.90
285;DHT22;127;48.770;9.212;2023-04-24T04:13:37;9.40;99.90
285;DHT22;127;48.770;9.212;2023-04-24T04:16:09;9.50;99.90
285;DHT22;127;48.770;9.212;2023-04-24T04:18:38;9.60;99.90
285;DHT22;127;48.770;9.212;2023-04-24T04:21:07;9.60;99.90
285;DHT22;127;48.770;9.212;2023-04-24T04:23:37;9.70;99.90
285;DHT22;127;48.770;9.212;2023-04-24T04:26:22;9.70;99.90
285;DHT22;127;48.770;9.212;2023-04-24T04:28:57;9.70;99.90
285;DHT22;127;48.770;9.212;2023-04-24T04:31:29;9.80;99.90
285;DHT22;127;48.770;9.212;2023-04-24T04:34:03;9.70;99.90
285;DHT22;127;48.770;9.212;2023-04-24T04:36:34;9.70;99.90
285;DHT22;127;48.770;9.212;2023-04-24T04:39:05;9.60;99.90
285;DHT22;127;48.770;9.212;2023-04-24T04:41:34;9.40;99.90
285;DHT22;127;48.770;9.212;2023-04-24T04:44:03;9.30;99.90
285;DHT22;127;48.770;9.212;2023-04-24T04:46:36;9.20;99.90
285;DHT22;127;48.770;9.212;2023-04-24T04:49:07;9.20;99.90
285;DHT22;127;48.770;9.212;2023-04-24T04:51:36;9.00;99.90
285;DHT22;127;48.770;9.212;2023-04-24T04:54:05;9.00;99.90
285;DHT22;127;48.770;9.212;2023-04-24T04:56:35;8.90;99.90
285;DHT22;127;48.770;9.212;2023-04-24T04:59:04;8.80;99.90
285;DHT22;127;48.770;9.212;2023-04-24T05:01:39;8.80;99.90
285;DHT22;127;48.770;9.212;2023-04-24T05:04:07;8.70;99.90
285;DHT22;127;48.770;9.212;2023-04-24T05:06:36;8.70;99.90
285;DHT22;127;48.770;9.212;2023-04-24T05:09:07;8.80;99.90
285;DHT22;127;48.770;9.212;2023-04-24T05:11:38;8.70;99.90
285;DHT22;127;48.770;9.212;2023-04-24T05:14:07;8.70;99.90
285;DHT22;127;48.770;9.212;2023-04-24T05:16:40;8.70;99.90
285;DHT22;127;48.770;9.212;2023-04-24T05:19:09;8.70;99.90
285;DHT22;127;48.770;9.212;2023-04-24T05:21:39;8.70;99.90
285;DHT22;127;48.770;9.212;2023-04-24T05:24:08;8.80;99.90
285;DHT22;127;48.770;9.212;2023-04-24T05:26:37;8.80;99.90
285;DHT22;127;48.770;9.212;2023-04-24T05:29:08;8.70;99.90
285;DHT22;127;48.770;9.212;2023-04-24T05:31:40;8.70;99.90
285;DHT22;127;48.770;9.212;2023-04-24T05:34:08;8.70;99.90
285;DHT22;127;48.770;9.212;2023-04-24T05:36:37;8.80;99.90
285;DHT22;127;48.770;9.212;2023-04-24T05:39:06;8.80;99.90
285;DHT22;127;48.770;9.212;2023-04-24T05:41:45;8.80;99.90
285;DHT22;127;48.770;9.212;2023-04-24T05:44:14;8.90;99.90
285;DHT22;127;48.770;9.212;2023-04-24T05:46:45;8.90;99.90
285;DHT22;127;48.770;9.212;2023-04-24T05:49:14;9.00;99.90
285;DHT22;127;48.770;9.212;2023-04-24T05:51:45;9.00;99.90
285;DHT22;127;48.770;9.212;2023-04-24T05:54:13;9.00;99.90
285;DHT22;127;48.770;9.212;2023-04-24T05:56:42;9.00;99.90
285;DHT22;127;48.770;9.212;2023-04-24T06:02:00;9.10;99.90
285;DHT22;127;48.770;9.212;2023-04-24T06:07:45;9.10;99.90
285;DHT22;127;48.770;9.212;2023-04-24T06:10:14;9.10;99.90
285;DHT22;127;48.770;9.212;2023-04-24T06:12:43;9.10;99.90
285;DHT22;127;48.770;9.212;2023-04-24T06:15:12;9.10;99.90
285;DHT22;127;48.770;9.212;2023-04-24T06:17:45;9.10;99.90
285;DHT22;127;48.770;9.212;2023-04-24T06:20:15;9.10;99.90
285;DHT22;127;48.770;9.212;2023-04-24T06:22:55;9.10;99.90
285;DHT22;127;48.770;9.212;2023-04-24T06:25:26;9.10;99.90
285;DHT22;127;48.770;9.212;2023-04-24T06:27:56;9.10;99.90
285;DHT22;127;48.770;9.212;2023-04-24T06:30:29;9.10;99.90
285;DHT22;127;48.770;9.212;2023-04-24T06:33:00;9.10;99.90
285;DHT22;127;48.770;9.212;2023-04-24T06:35:32;9.20;99.90
285;DHT22;127;48.770;9.212;2023-04-24T06:38:00;9.30;99.90
285;DHT22;127;48.770;9.212;2023-04-24T06:40:30;9.30;99.90
285;DHT22;127;48.770;9.212;2023-04-24T06:42:59;9.40;99.90
285;DHT22;127;48.770;9.212;2023-04-24T06:45:28;9.60;99.90
285;DHT22;127;48.770;9.212;2023-04-24T06:48:02;9.70;99.90
285;DHT22;127;48.770;9.212;2023-04-24T06:50:31;9.80;99.90
285;DHT22;127;48.770;9.212;2023-04-24T06:53:01;9.90;99.90
285;DHT22;127;48.770;9.212;2023-04-24T06:55:31;10.00;99.90
285;DHT22;127;48.770;9.212;2023-04-24T06:58:07;10.20;99.90
285;DHT22;127;48.770;9.212;2023-04-24T07:00:54;10.30;99.90
285;DHT22;127;48.770;9.212;2023-04-24T07:03:29;10.60;99.90
285;DHT22;127;48.770;9.212;2023-04-24T07:06:08;10.80;99.90
285;DHT22;127;48.770;9.212;2023-04-24T07:08:48;10.90;99.90
285;DHT22;127;48.770;9.212;2023-04-24T07:11:21;11.10;99.90
285;DHT22;127;48.770;9.212;2023-04-24T07:13:53;11.20;99.90
285;DHT22;127;48.770;9.212;2023-04-24T07:16:22;11.10;99.90
285;DHT22;127;48.770;9.212;2023-04-24T07:19:19;11.30;99.90
285;DHT22;127;48.770;9.212;2023-04-24T07:22:05;11.40;99.90
285;DHT22;127;48.770;9.212;2023-04-24T07:24:34;11.40;99.90
285;DHT22;127;48.770;9.212;2023-04-24T07:27:03;11.30;99.90
285;DHT22;127;48.770;9.212;2023-04-24T07:29:41;11.00;99.90
285;DHT22;127;48.770;9.212;2023-04-24T07:32:12;11.00;99.90
285;DHT22;127;48.770;9.212;2023-04-24T07:34:45;11.00;99.90
285;DHT22;127;48.770;9.212;2023-04-24T07:37:14;11.10;99.90
285;DHT22;127;48.770;9.212;2023-04-24T07:39:45;11.10;99.90
285;DHT22;127;48.770;9.212;2023-04-24T07:42:14;11.30;99.90
285;DHT22;127;48.770;9.212;2023-04-24T07:44:43;11.50;99.90
285;DHT22;127;48.770;9.212;2023-04-24T07:47:17;11.50;99.90
285;DHT22;127;48.770;9.212;2023-04-24T07:52:35;11.90;99.90
285;DHT22;127;48.770;9.212;2023-04-24T07:55:05;11.50;99.90
285;DHT22;127;48.770;9.212;2023-04-24T07:57:34;11.80;99.90
285;DHT22;127;48.770;9.212;2023-04-24T08:00:04;12.30;99.90
285;DHT22;127;48.770;9.212;2023-04-24T08:03:21;12.30;99.90
285;DHT22;127;48.770;9.212;2023-04-24T08:06:05;12.40;99.90
285;DHT22;127;48.770;9.212;2023-04-24T08:08:39;12.50;99.90
285;DHT22;127;48.770;9.212;2023-04-24T08:11:08;12.40;99.90
285;DHT22;127;48.770;9.212;2023-04-24T08:13:39;12.30;99.90
285;DHT22;127;48.770;9.212;2023-04-24T08:16:12;12.40;99.90
285;DHT22;127;48.770;9.212;2023-04-24T08:18:43;12.40;99.90
285;DHT22;127;48.770;9.212;2023-04-24T08:21:14;12.60;99.90
285;DHT22;127;48.770;9.212;2023-04-24T08:23:50;13.00;99.90
285;DHT22;127;48.770;9.212;2023-04-24T08:26:22;13.60;99.90
285;DHT22;127;48.770;9.212;2023-04-24T08:28:54;14.10;99.90
285;DHT22;127;48.770;9.212;2023-04-24T08:31:23;14.40;99.90
285;DHT22;127;48.770;9.212;2023-04-24T08:34:02;14.40;99.90
285;DHT22;127;48.770;9.212;2023-04-24T08:36:35;14.70;99.90
285;DHT22;127;48.770;9.212;2023-04-24T08:39:12;14.70;99.90
285;DHT22;127;48.770;9.212;2023-04-24T08:41:51;14.30;99.90
285;DHT22;127;48.770;9.212;2023-04-24T08:44:40;13.50;99.90
285;DHT22;127;48.770;9.212;2023-04-24T08:47:35;13.60;99.90
285;DHT22;127;48.770;9.212;2023-04-24T08:50:29;13.40;99.90
285;DHT22;127;48.770;9.212;2023-04-24T08:53:22;13.20;99.90
285;DHT22;127;48.770;9.212;2023-04-24T08:55:57;12.80;99.90
285;DHT22;127;48.770;9.212;2023-04-24T08:58:37;12.50;99.90
285;DHT22;127;48.770;9.212;2023-04-24T09:01:25;12.30;99.90
285;DHT22;127;48.770;9.212;2023-04-24T09:03:55;12.70;99.90
285;DHT22;127;48.770;9.212;2023-04-24T09:06:27;13.40;99.90
285;DHT22;127;48.770;9.212;2023-04-24T09:09:07;13.90;99.90
285;DHT22;127;48.770;9.212;2023-04-24T09:11:43;13.60;99.90
285;DHT22;127;48.770;9.212;2023-04-24T09:14:12;13.20;99.90
285;DHT22;127;48.770;9.212;2023-04-24T09:16:41;12.90;99.90
285;DHT22;127;48.770;9.212;2023-04-24T09:19:11;12.40;99.90
285;DHT22;127;48.770;9.212;2023-04-24T09:21:39;12.10;99.90
285;DHT22;127;48.770;9.212;2023-04-24T09:24:26;11.90;99.90
285;DHT22;127;48.770;9.212;2023-04-24T09:30:04;11.60;99.90
285;DHT22;127;48.770;9.212;2023-04-24T09:32:34;11.00;99.90
285;DHT22;127;48.770;9.212;2023-04-24T09:35:15;11.00;99.90
285;DHT22;127;48.770;9.212;2023-04-24T09:37:48;10.90;99.90
285;DHT22;127;48.770;9.212;2023-04-24T09:40:24;10.80;99.90
285;DHT22;127;48.770;9.212;2023-04-24T09:42:54;10.90;99.90
285;DHT22;127;48.770;9.212;2023-04-24T09:45:28;11.20;99.90
285;DHT22;127;48.770;9.212;2023-04-24T09:47:57;11.30;99.90
285;DHT22;127;48.770;9.212;2023-04-24T09:50:26;11.50;99.90
285;DHT22;127;48.770;9.212;2023-04-24T09:52:58;12.40;99.90
285;DHT22;127;48.770;9.212;2023-04-24T09:55:30;12.90;99.90
285;DHT22;127;48.770;9.212;2023-04-24T09:58:01;12.20;99.90
285;DHT22;127;48.770;9.212;2023-04-24T10:00:34;12.00;99.90
285;DHT22;127;48.770;9.212;2023-04-24T10:03:07;11.60;99.90
285;DHT22;127;48.770;9.212;2023-04-24T10:05:39;11.60;99.90
285;DHT22;127;48.770;9.212;2023-04-24T10:08:46;11.60;99.90
285;DHT22;127;48.770;9.212;2023-04-24T10:11:09;11.30;99.90
285;DHT22;127;48.770;9.212;2023-04-24T10:13:46;11.50;99.90
285;DHT22;127;48.770;9.212;2023-04-24T10:16:15;11.70;99.90
285;DHT22;127;48.770;9.212;2023-04-24T10:18:44;11.80;99.90
285;DHT22;127;48.770;9.212;2023-04-24T10:21:27;12.30;99.90
285;DHT22;127;48.770;9.212;2023-04-24T10:24:15;14.10;99.90
285;DHT22;127;48.770;9.212;2023-04-24T10:26:56;15.60;99.90
285;DHT22;127;48.770;9.212;2023-04-24T10:29:39;16.50;99.90
285;DHT22;127;48.770;9.212;2023-04-24T10:32:12;17.30;99.90
285;DHT22;127;48.770;9.212;2023-04-24T10:34:44;17.20;99.90
285;DHT22;127;48.770;9.212;2023-04-24T10:37:19;16.90;99.90
285;DHT22;127;48.770;9.212;2023-04-24T10:39:48;15.50;99.90
285;DHT22;127;48.770;9.212;2023-04-24T10:42:22;14.80;99.90
285;DHT22;127;48.770;9.212;2023-04-24T10:44:53;13.90;99.90
285;DHT22;127;48.770;9.212;2023-04-24T10:47:25;13.30;99.90
285;DHT22;127;48.770;9.212;2023-04-24T10:49:54;12.70;99.90
285;DHT22;127;48.770;9.212;2023-04-24T10:52:45;12.40;99.90
285;DHT22;127;48.770;9.212;2023-04-24T10:55:21;12.00;99.90
285;DHT22;127;48.770;9.212;2023-04-24T10:58:11;12.10;99.90
285;DHT22;127;48.770;9.212;2023-04-24T11:00:44;12.10;99.90
285;DHT22;127;48.770;9.212;2023-04-24T11:03:27;12.00;99.90
285;DHT22;127;48.770;9.212;2023-04-24T11:05:58;12.10;99.90
285;DHT22;127;48.770;9.212;2023-04-24T11:08:32;12.40;99.90
285;DHT22;127;48.770;9.212;2023-04-24T11:11:14;12.00;99.90
285;DHT22;127;48.770;9.212;2023-04-24T11:14:05;11.70;99.90
285;DHT22;127;48.770;9.212;2023-04-24T11:16:39;11.50;99.90
285;DHT22;127;48.770;9.212;2023-04-24T11:19:18;11.50;99.90
285;DHT22;127;48.770;9.212;2023-04-24T11:21:49;11.30;99.90
285;DHT22;127;48.770;9.212;2023-04-24T11:24:28;11.30;99.90
285;DHT22;127;48.770;9.212;2023-04-24T11:26:58;11.50;99.90
285;DHT22;127;48.770;9.212;2023-04-24T11:29:47;11.50;99.90
285;DHT22;127;48.770;9.212;2023-04-24T11:32:17;11.80;99.90
285;DHT22;127;48.770;9.212;2023-04-24T11:34:57;12.40;99.90
285;DHT22;127;48.770;9.212;2023-04-24T11:37:28;13.10;99.90
285;DHT22;127;48.770;9.212;2023-04-24T11:40:01;13.10;99.90
285;DHT22;127;48.770;9.212;2023-04-24T11:42:38;12.90;99.90
285;DHT22;127;48.770;9.212;2023-04-24T11:45:14;12.80;99.90
285;DHT22;127;48.770;9.212;2023-04-24T11:47:44;13.10;99.90
285;DHT22;127;48.770;9.212;2023-04-24T11:50:17;12.80;99.90
285;DHT22;127;48.770;9.212;2023-04-24T11:52:47;12.30;99.90
285;DHT22;127;48.770;9.212;2023-04-24T11:55:26;12.20;99.90
285;DHT22;127;48.770;9.212;2023-04-24T11:57:59;12.00;99.90
285;DHT22;127;48.770;9.212;2023-04-24T12:00:37;11.80;99.90
285;DHT22;127;48.770;9.212;2023-04-24T12:03:07;11.70;99.90
285;DHT22;127;48.770;9.212;2023-04-24T12:05:38;11.70;99.90
285;DHT22;127;48.770;9.212;2023-04-24T12:08:07;12.30;99.90
285;DHT22;127;48.770;9.212;2023-04-24T12:10:42;13.00;99.90
285;DHT22;127;48.770;9.212;2023-04-24T12:13:11;13.70;99.90
285;DHT22;127;48.770;9.212;2023-04-24T12:15:47;14.00;99.90
285;DHT22;127;48.770;9.212;2023-04-24T12:18:22;13.30;99.90
285;DHT22;127;48.770;9.212;2023-04-24T12:20:51;13.20;99.90
285;DHT22;127;48.770;9.212;2023-04-24T12:23:35;12.90;99.90
285;DHT22;127;48.770;9.212;2023-04-24T12:26:19;12.50;99.90
285;DHT22;127;48.770;9.212;2023-04-24T12:28:49;12.30;99.90
285;DHT22;127;48.770;9.212;2023-04-24T12:31:28;12.10;99.90
285;DHT22;127;48.770;9.212;2023-04-24T12:34:03;11.90;99.90
285;DHT22;127;48.770;9.212;2023-04-24T12:36:32;12.10;99.90
285;DHT22;127;48.770;9.212;2023-04-24T12:39:14;12.00;99.90
285;DHT22;127;48.770;9.212;2023-04-24T12:41:58;11.70;99.90
285;DHT22;127;48.770;9.212;2023-04-24T12:44:30;11.80;99.90
285;DHT22;127;48.770;9.212;2023-04-24T12:47:05;11.80;99.90
285;DHT22;127;48.770;9.212;2023-04-24T12:49:44;12.60;99.90
285;DHT22;127;48.770;9.212;2023-04-24T12:52:14;13.10;99.90
285;DHT22;127;48.770;9.212;2023-04-24T12:54:43;13.20;99.90
285;DHT22;127;48.770;9.212;2023-04-24T12:57:12;13.10;99.90
285;DHT22;127;48.770;9.212;2023-04-24T12:59:41;12.70;99.90
285;DHT22;127;48.770;9.212;2023-04-24T13:02:15;12.50;99.90
285;DHT22;127;48.770;9.212;2023-04-24T13:04:48;12.00;99.90
285;DHT22;127;48.770;9.212;2023-04-24T13:07:17;11.60;99.90
285;DHT22;127;48.770;9.212;2023-04-24T13:09:48;11.40;99.90
285;DHT22;127;48.770;9.212;2023-04-24T13:12:17;11.10;99.90
285;DHT22;127;48.770;9.212;2023-04-24T13:14:47;11.10;99.90
285;DHT22;127;48.770;9.212;2023-04-24T13:17:18;11.00;99.90
285;DHT22;127;48.770;9.212;2023-04-24T13:19:53;11.00;99.90
285;DHT22;127;48.770;9.212;2023-04-24T13:22:43;12.00;99.90
285;DHT22;127;48.770;9.212;2023-04-24T13:25:21;12.70;99.90
285;DHT22;127;48.770;9.212;2023-04-24T13:27:50;13.50;99.90
285;DHT22;127;48.770;9.212;2023-04-24T13:33:17;14.90;99.90
285;DHT22;127;48.770;9.212;2023-04-24T13:35:46;14.60;99.90
285;DHT22;127;48.770;9.212;2023-04-24T13:38:15;14.10;99.90
285;DHT22;127;48.770;9.212;2023-04-24T13:40:49;13.80;99.90
285;DHT22;127;48.770;9.212;2023-04-24T13:43:18;13.40;99.90
285;DHT22;127;48.770;9.212;2023-04-24T13:45:54;13.10;99.90
285;DHT22;127;48.770;9.212;2023-04-24T13:48:33;12.60;99.90
285;DHT22;127;48.770;9.212;2023-04-24T13:51:02;12.20;99.90
285;DHT22;127;48.770;9.212;2023-04-24T13:53:34;11.80;99.90
285;DHT22;127;48.770;9.212;2023-04-24T13:56:05;11.20;99.90
285;DHT22;127;48.770;9.212;2023-04-24T13:58:39;10.40;99.90
285;DHT22;127;48.770;9.212;2023-04-24T14:01:15;10.10;99.90
285;DHT22;127;48.770;9.212;2023-04-24T14:03:47;9.90;99.90
285;DHT22;127;48.770;9.212;2023-04-24T14:06:17;9.90;99.90
285;DHT22;127;48.770;9.212;2023-04-24T14:08:46;9.90;99.90
285;DHT22;127;48.770;9.212;2023-04-24T14:11:16;10.60;99.90
285;DHT22;127;48.770;9.212;2023-04-24T14:13:45;11.90;99.90
285;DHT22;127;48.770;9.212;2023-04-24T14:16:20;12.70;99.90
285;DHT22;127;48.770;9.212;2023-04-24T14:18:56;12.10;99.90
285;DHT22;127;48.770;9.212;2023-04-24T14:21:28;12.10;99.90
285;DHT22;127;48.770;9.212;2023-04-24T14:24:00;12.70;99.90
285;DHT22;127;48.770;9.212;2023-04-24T14:26:43;13.80;99.90
285;DHT22;127;48.770;9.212;2023-04-24T14:29:26;14.40;99.90
285;DHT22;127;48.770;9.212;2023-04-24T14:31:56;14.80;99.90
285;DHT22;127;48.770;9.212;2023-04-24T14:34:31;13.70;99.90
285;DHT22;127;48.770;9.212;2023-04-24T14:37:02;13.90;99.90
285;DHT22;127;48.770;9.212;2023-04-24T14:39:37;13.80;99.90
285;DHT22;127;48.770;9.212;2023-04-24T14:42:13;13.80;99.90
285;DHT22;127;48.770;9.212;2023-04-24T14:45:08;14.30;99.90
285;DHT22;127;48.770;9.212;2023-04-24T14:47:44;14.90;99.90
285;DHT22;127;48.770;9.212;2023-04-24T14:50:21;14.10;99.90
285;DHT22;127;48.770;9.212;2023-04-24T14:53:14;14.30;99.90
285;DHT22;127;48.770;9.212;2023-04-24T14:56:05;13.40;99.90
285;DHT22;127;48.770;9.212;2023-04-24T14:58:34;13.20;99.90
285;DHT22;127;48.770;9.212;2023-04-24T15:01:04;13.60;99.90
285;DHT22;127;48.770;9.212;2023-04-24T15:03:36;13.80;99.90
285;DHT22;127;48.770;9.212;2023-04-24T15:06:15;14.20;99.90
285;DHT22;127;48.770;9.212;2023-04-24T15:08:45;15.40;99.90
285;DHT22;127;48.770;9.212;2023-04-24T15:11:14;15.80;99.90
285;DHT22;127;48.770;9.212;2023-04-24T15:13:43;15.50;99.90
285;DHT22;127;48.770;9.212;2023-04-24T15:16:17;14.20;99.90
285;DHT22;127;48.770;9.212;2023-04-24T15:18:51;13.90;99.90
285;DHT22;127;48.770;9.212;2023-04-24T15:21:23;13.10;99.90
285;DHT22;127;48.770;9.212;2023-04-24T15:23:51;12.30;99.90
285;DHT22;127;48.770;9.212;2023-04-24T15:26:23;12.00;99.90
285;DHT22;127;48.770;9.212;2023-04-24T15:28:56;11.80;99.90
285;DHT22;127;48.770;9.212;2023-04-24T15:31:28;11.70;99.90
285;DHT22;127;48.770;9.212;2023-04-24T15:34:00;11.50;99.90
285;DHT22;127;48.770;9.212;2023-04-24T15:36:32;11.50;99.90
285;DHT22;127;48.770;9.212;2023-04-24T15:39:01;11.50;99.90
285;DHT22;127;48.770;9.212;2023-04-24T15:41:30;11.60;99.90
285;DHT22;127;48.770;9.212;2023-04-24T15:44:02;11.60;99.90
285;DHT22;127;48.770;9.212;2023-04-24T15:46:34;11.30;99.90
285;DHT22;127;48.770;9.212;2023-04-24T15:49:06;10.60;99.90
285;DHT22;127;48.770;9.212;2023-04-24T15:51:37;10.60;99.90
285;DHT22;127;48.770;9.212;2023-04-24T15:54:07;10.50;99.90
285;DHT22;127;48.770;9.212;2023-04-24T15:56:41;10.00;99.90
285;DHT22;127;48.770;9.212;2023-04-24T15:59:21;10.00;99.90
285;DHT22;127;48.770;9.212;2023-04-24T16:01:52;9.70;99.90
285;DHT22;127;48.770;9.212;2023-04-24T16:04:22;9.80;99.90
285;DHT22;127;48.770;9.212;2023-04-24T16:06:59;10.00;99.90
285;DHT22;127;48.770;9.212;2023-04-24T16:09:31;10.50;99.90
285;DHT22;127;48.770;9.212;2023-04-24T16:12:14;11.10;99.90
285;DHT22;127;48.770;9.212;2023-04-24T16:14:43;11.50;99.90
285;DHT22;127;48.770;9.212;2023-04-24T16:17:14;11.60;99.90
285;DHT22;127;48.770;9.212;2023-04-24T16:19:43;11.40;99.90
285;DHT22;127;48.770;9.212;2023-04-24T16:22:15;12.00;99.90
285;DHT22;127;48.770;9.212;2023-04-24T16:24:44;12.60;99.90
285;DHT22;127;48.770;9.212;2023-04-24T16:27:13;13.30;99.90
285;DHT22;127;48.770;9.212;2023-04-24T16:29:42;13.80;99.90
285;DHT22;127;48.770;9.212;2023-04-24T16:32:11;13.60;99.90
285;DHT22;127;48.770;9.212;2023-04-24T16:34:42;12.90;99.90
285;DHT22;127;48.770;9.212;2023-04-24T16:37:14;12.60;99.90
285;DHT22;127;48.770;9.212;2023-04-24T16:39:43;12.50;99.90
285;DHT22;127;48.770;9.212;2023-04-24T16:42:12;12.30;99.90
285;DHT22;127;48.770;9.212;2023-04-24T16:44:43;12.10;99.90
285;DHT22;127;48.770;9.212;2023-04-24T16:47:11;12.00;99.90
285;DHT22;127;48.770;9.212;2023-04-24T16:49:41;11.80;99.90
285;DHT22;127;48.770;9.212;2023-04-24T16:52:11;11.70;99.90
285;DHT22;127;48.770;9.212;2023-04-24T16:54:42;11.50;99.90
285;DHT22;127;48.770;9.212;2023-04-24T16:57:13;11.40;99.90
285;DHT22;127;48.770;9.212;2023-04-24T16:59:43;11.40;99.90
285;DHT22;127;48.770;9.212;2023-04-24T17:02:12;11.40;99.90
285;DHT22;127;48.770;9.212;2023-04-24T17:04:41;11.50;99.90
285;DHT22;127;48.770;9.212;2023-04-24T17:07:15;11.50;99.90
285;DHT22;127;48.770;9.212;2023-04-24T17:09:46;11.80;99.90
285;DHT22;127;48.770;9.212;2023-04-24T17:12:15;12.50;99.90
285;DHT22;127;48.770;9.212;2023-04-24T17:14:44;12.90;99.90
285;DHT22;127;48.770;9.212;2023-04-24T17:17:13;13.10;99.90
285;DHT22;127;48.770;9.212;2023-04-24T17:19:48;13.10;99.90
285;DHT22;127;48.770;9.212;2023-04-24T17:22:22;12.90;99.90
285;DHT22;127;48.770;9.212;2023-04-24T17:24:55;12.50;99.90
285;DHT22;127;48.770;9.212;2023-04-24T17:27:27;12.60;99.90
285;DHT22;127;48.770;9.212;2023-04-24T17:29:59;12.20;99.90
285;DHT22;127;48.770;9.212;2023-04-24T17:32:33;12.20;99.90
285;DHT22;127;48.770;9.212;2023-04-24T17:35:11;12.10;99.90
285;DHT22;127;48.770;9.212;2023-04-24T17:37:42;12.10;99.90
285;DHT22;127;48.770;9.212;2023-04-24T17:40:19;11.90;99.90